Time;durP1;ratioP1;P1;durP2;ratioP2;P2;SDS_P1;SDS_P2;PMS_P1;PMS_P2;Temp;Humidity;BMP_temperature;BMP_pressure;BME280_temperature;BME280_humidity;BME280_pressure;Samples;Min_cycle;Max_cycle;Signal;HPM_P1;HPM_P2
2021/06/03 00:02:13;;;;;;;;;14.00;14.00;;;;;23.11;52.88;100893.34;5075233;28;46447;-84
2021/06/03 00:04:39;;;;;;;;;18.75;16.50;;;;;23.20;53.14;100911.81;5077631;28;45569;-84
2021/06/03 00:07:04;;;;;;;;;13.50;13.25;;;;;23.13;53.18;100894.00;5064533;28;45659;-82
2021/06/03 00:09:31;;;;;;;;;14.50;14.50;;;;;23.18;53.37;100902.28;5081600;28;47534;-84
2021/06/03 00:11:57;;;;;;;;;17.25;16.25;;;;;22.92;53.23;100867.97;5081141;28;46441;-84
2021/06/03 00:14:24;;;;;;;;;16.75;14.50;;;;;22.96;53.14;100880.78;5081476;28;45765;-84
2021/06/03 00:16:49;;;;;;;;;18.75;17.50;;;;;22.76;53.55;100849.44;5083671;28;45596;-84
2021/06/03 00:22:37;;;;;;;;;15.25;14.25;;;;;23.01;52.97;100897.13;5079644;28;45871;-84
2021/06/03 00:25:04;;;;;;;;;16.50;16.00;;;;;22.82;53.20;100878.94;5078422;28;45665;-84
2021/06/03 00:27:30;;;;;;;;;20.75;15.25;;;;;23.02;53.38;100916.66;5078322;28;45749;-84
2021/06/03 00:29:55;;;;;;;;;15.50;14.50;;;;;22.81;53.25;100895.16;5078257;28;45864;-83
2021/06/03 00:32:20;;;;;;;;;17.25;15.50;;;;;22.64;53.55;100872.22;5076241;28;47050;-83
2021/06/03 00:38:08;;;;;;;;;15.50;14.50;;;;;22.64;53.41;100894.44;5077933;28;45684;-83
2021/06/03 00:40:33;;;;;;;;;17.00;16.25;;;;;22.58;53.29;100879.97;5077459;28;45612;-83
2021/06/03 00:42:59;;;;;;;;;16.00;14.25;;;;;22.65;53.22;100903.28;5075899;28;48323;-84
2021/06/03 00:45:30;;;;;;;;;14.75;13.75;;;;;22.78;53.51;100928.38;5075697;28;45728;-83
2021/06/03 00:47:57;;;;;;;;;16.00;15.00;;;;;22.40;54.03;100876.75;5058850;28;45971;-84
2021/06/03 00:50:27;;;;;;;;;18.50;17.25;;;;;22.77;53.58;100940.13;5074969;28;46659;-83
2021/06/03 00:52:53;;;;;;;;;16.00;15.75;;;;;22.77;53.32;100936.59;5077103;28;45927;-84
2021/06/03 00:55:19;;;;;;;;;16.00;14.25;;;;;22.50;53.83;100893.38;5076943;28;45531;-84
2021/06/03 00:57:45;;;;;;;;;17.75;15.25;;;;;22.69;54.13;100920.59;5077486;28;45759;-84
2021/06/03 01:00:13;;;;;;;;;15.00;14.25;;;;;22.72;53.82;100928.31;5058311;28;48431;-83
2021/06/03 01:02:39;;;;;;;;;16.50;14.00;;;;;22.80;53.57;100936.22;5058597;28;48496;-84
2021/06/03 01:05:19;;;;;;;;;16.75;16.25;;;;;22.68;53.84;100925.09;5058967;28;45693;-84
2021/06/03 01:07:44;;;;;;;;;15.50;15.00;;;;;22.81;53.70;100944.09;5077197;28;45628;-85
2021/06/03 01:10:29;;;;;;;;;15.00;14.00;;;;;22.81;53.86;100945.91;5076897;28;46599;-84
2021/06/03 01:13:32;;;;;;;;;16.50;16.00;;;;;22.63;53.86;100924.81;5076808;28;45718;-85
2021/06/03 01:16:00;;;;;;;;;17.00;15.50;;;;;22.76;53.58;100941.13;5076861;28;45736;-84
2021/06/03 01:18:26;;;;;;;;;16.25;15.00;;;;;22.49;53.60;100914.94;5074194;28;45581;-84
2021/06/03 01:20:54;;;;;;;;;15.25;15.25;;;;;22.47;53.71;100908.91;5075103;28;48547;-84
2021/06/03 01:23:37;;;;;;;;;16.75;15.00;;;;;22.60;53.94;100933.19;5075160;28;47314;-84
2021/06/03 01:26:04;;;;;;;;;14.00;13.25;;;;;22.73;53.64;100953.97;5075313;28;45966;-83
2021/06/03 01:28:31;;;;;;;;;15.00;13.50;;;;;22.63;53.68;100940.84;5057992;28;45884;-85
2021/06/03 01:30:57;;;;;;;;;16.25;15.00;;;;;22.71;53.75;100951.50;5058029;28;47627;-84
2021/06/03 01:33:28;;;;;;;;;17.50;15.25;;;;;22.51;53.76;100927.06;5076300;28;46619;-84
2021/06/03 01:35:58;;;;;;;;;15.75;15.75;;;;;22.56;54.18;100939.91;5076481;28;45476;-83
2021/06/03 01:38:32;;;;;;;;;20.75;18.00;;;;;22.47;53.95;100917.75;5076086;28;45701;-83
2021/06/03 01:41:00;;;;;;;;;16.50;14.00;;;;;22.73;53.78;100965.50;5076153;28;45577;-84
2021/06/03 01:43:28;;;;;;;;;14.50;14.00;;;;;22.74;53.66;100972.50;5055522;28;47428;-83
2021/06/03 01:45:57;;;;;;;;;15.00;15.00;;;;;22.68;54.02;100953.66;5074964;28;45747;-82
2021/06/03 01:48:23;;;;;;;;;17.25;16.25;;;;;22.70;53.93;100947.16;5074387;28;45897;-84
2021/06/03 01:50:51;;;;;;;;;15.25;13.75;;;;;22.55;53.49;100931.06;5057666;28;47566;-84
2021/06/03 01:53:20;;;;;;;;;15.75;15.50;;;;;22.71;53.86;100956.84;5057912;28;48114;-85
2021/06/03 01:55:46;;;;;;;;;14.00;13.25;;;;;22.50;53.70;100925.44;5057588;28;45637;-83
2021/06/03 01:58:12;;;;;;;;;16.00;14.25;;;;;22.60;53.99;100950.06;5076539;28;45588;-85
2021/06/03 02:00:38;;;;;;;;;18.00;16.75;;;;;22.80;53.78;100987.00;5074415;28;47446;-85
2021/06/03 02:03:04;;;;;;;;;18.25;17.00;;;;;22.50;53.59;100940.63;5074808;28;46175;-84
2021/06/03 02:05:29;;;;;;;;;17.25;17.25;;;;;22.65;53.60;100964.72;5076427;28;45682;-83
2021/06/03 02:07:55;;;;;;;;;16.50;14.50;;;;;22.56;53.42;100958.63;5075662;28;45767;-85
2021/06/03 02:10:22;;;;;;;;;18.25;17.25;;;;;22.53;53.62;100949.09;5056962;28;47230;-84
2021/06/03 02:13:06;;;;;;;;;14.75;14.75;;;;;22.58;53.88;100957.41;5075644;28;45956;-85
2021/06/03 02:15:35;;;;;;;;;18.75;18.25;;;;;22.81;53.91;100994.84;5074273;28;45589;-84
2021/06/03 02:18:04;;;;;;;;;16.75;15.00;;;;;22.60;53.77;100952.75;5057741;28;46042;-83
2021/06/03 02:23:52;;;;;;;;;18.75;16.25;;;;;22.81;54.13;100991.34;5075126;28;45854;-83
2021/06/03 02:26:18;;;;;;;;;17.25;16.25;;;;;22.58;53.92;100956.56;5075458;28;45568;-84
2021/06/03 02:28:44;;;;;;;;;16.00;15.25;;;;;22.82;54.13;100983.16;5075514;28;45805;-84
2021/06/03 02:31:13;;;;;;;;;17.75;16.50;;;;;22.80;53.93;100979.81;5056945;28;48431;-84
2021/06/03 02:33:40;;;;;;;;;20.50;18.00;;;;;22.85;54.12;100992.63;5075493;28;46485;-84
2021/06/03 02:36:07;;;;;;;;;15.75;15.75;;;;;22.85;53.90;100993.47;5073681;28;45491;-84
2021/06/03 02:38:35;;;;;;;;;16.25;14.75;;;;;22.59;53.70;100950.22;5074021;28;45990;-84
2021/06/03 02:41:06;;;;;;;;;18.25;16.50;;;;;22.86;53.67;100994.31;5075442;28;45646;-86
2021/06/03 02:43:33;;;;;;;;;15.75;15.25;;;;;22.71;54.16;100978.22;5075573;28;45999;-84
2021/06/03 02:46:00;;;;;;;;;15.25;14.50;;;;;22.59;53.72;100956.41;5073996;28;45799;-85
2021/06/03 02:48:26;;;;;;;;;15.25;15.25;;;;;22.63;54.00;100972.91;5075577;28;45535;-84
2021/06/03 02:50:51;;;;;;;;;17.50;17.25;;;;;22.73;54.36;100978.88;5073797;28;48595;-83
2021/06/03 02:53:16;;;;;;;;;15.00;13.25;;;;;22.88;53.71;101003.00;5075436;28;46006;-84
2021/06/03 02:55:54;;;;;;;;;16.75;16.00;;;;;22.82;54.23;100998.34;5075458;28;46076;-84
2021/06/03 02:58:20;;;;;;;;;17.75;16.75;;;;;22.80;54.04;100995.84;5057350;28;45571;-85
2021/06/03 03:00:45;;;;;;;;;18.00;15.75;;;;;22.57;54.10;100953.06;5057019;28;48642;-85
2021/06/03 03:03:11;;;;;;;;;17.25;17.25;;;;;22.54;54.08;100956.13;5075512;28;45801;-84
2021/06/03 03:09:11;;;;;;;;;17.75;17.50;;;;;22.76;54.17;101007.91;5065901;28;45683;-84
2021/06/03 03:11:38;;;;;;;;;18.25;16.50;;;;;22.74;53.82;101009.91;5075321;28;45577;-84
2021/06/03 03:14:03;;;;;;;;;18.50;15.75;;;;;22.85;54.04;101019.38;5057118;28;47368;-84
2021/06/03 03:16:29;;;;;;;;;18.25;17.25;;;;;22.57;54.17;100977.13;5074002;28;45616;-84
2021/06/03 03:18:54;;;;;;;;;17.50;15.50;;;;;22.72;53.80;101008.44;5060345;28;45602;-86
2021/06/03 03:21:20;;;;;;;;;16.00;15.50;;;;;22.73;53.92;101013.59;5080253;28;46453;-84
2021/06/03 03:23:46;;;;;;;;;17.25;16.00;;;;;22.75;54.30;101016.09;5080977;28;45662;-83
2021/06/03 03:26:11;;;;;;;;;17.75;17.00;;;;;22.45;54.35;100981.22;5077956;28;45921;-83
2021/06/03 03:28:37;;;;;;;;;18.00;16.25;;;;;22.68;54.32;101015.94;5079274;28;45880;-83
2021/06/03 03:31:02;;;;;;;;;16.75;16.00;;;;;22.77;54.10;101038.97;5079426;28;45604;-84
2021/06/03 03:33:28;;;;;;;;;19.50;18.00;;;;;22.60;54.35;101008.84;5078950;28;46671;-82
2021/06/03 03:39:15;;;;;;;;;18.50;16.50;;;;;22.69;54.14;101038.16;5079000;28;45582;-82
2021/06/03 03:41:41;;;;;;;;;16.50;14.50;;;;;22.52;54.56;101008.88;5079221;28;46756;-84
2021/06/03 03:44:07;;;;;;;;;16.25;15.75;;;;;22.63;54.00;101036.19;5057739;28;47071;-84
2021/06/03 03:46:32;;;;;;;;;17.25;16.00;;;;;22.68;54.39;101044.50;5073397;28;45790;-83
2021/06/03 03:48:58;;;;;;;;;16.25;15.00;;;;;22.42;54.08;101007.44;5074494;28;45650;-84
2021/06/03 03:51:23;;;;;;;;;18.75;18.00;;;;;22.57;54.38;101043.88;5074834;28;45911;-84
2021/06/03 03:53:49;;;;;;;;;16.50;15.75;;;;;22.30;54.38;100998.16;5074602;28;45720;-83
2021/06/03 03:56:15;;;;;;;;;17.50;16.00;;;;;22.43;54.10;101025.13;5073397;28;46079;-82
2021/06/03 03:58:46;;;;;;;;;17.50;16.25;;;;;22.63;54.28;101065.56;5056912;28;45624;-84
2021/06/03 04:01:30;;;;;;;;;29.25;24.50;;;;;22.62;54.27;101067.41;5075530;28;46643;-83
2021/06/03 04:10:39;;;;;;;;;25.50;23.50;;;;;22.34;54.33;101024.34;5077859;28;45791;-83
2021/06/03 04:13:11;;;;;;;;;17.00;16.50;;;;;22.65;54.12;101074.25;5075841;28;47359;-82
2021/06/03 04:15:36;;;;;;;;;19.75;19.00;;;;;22.27;54.33;101019.88;5057413;28;48162;-84
2021/06/03 04:18:02;;;;;;;;;19.75;17.50;;;;;22.67;54.30;101085.59;5055755;28;46158;-84
2021/06/03 04:23:52;;;;;;;;;16.50;15.75;;;;;22.44;54.19;101057.00;5075947;28;45793;-87
2021/06/03 04:26:18;;;;;;;;;21.00;17.00;;;;;22.56;54.43;101068.13;5073196;28;47608;-85
2021/06/03 04:28:44;;;;;;;;;20.00;19.50;;;;;22.51;54.66;101068.63;5072943;27;45543;-87
2021/06/03 04:31:09;;;;;;;;;21.00;19.25;;;;;22.21;54.72;101021.41;5057061;28;45524;-86
2021/06/03 04:33:35;;;;;;;;;16.50;15.75;;;;;22.66;54.68;101094.63;5075822;28;47499;-87
2021/06/03 04:39:23;;;;;;;;;18.75;16.25;;;;;22.38;54.35;101054.19;5074707;28;45788;-86
2021/06/03 04:41:48;;;;;;;;;17.25;16.75;;;;;22.63;54.93;101101.13;5057610;28;46027;-87
2021/06/03 04:44:14;;;;;;;;;17.25;17.25;;;;;22.64;54.73;101102.78;5073637;28;47428;-86
2021/06/03 04:46:40;;;;;;;;;23.75;21.25;;;;;22.63;54.55;101101.13;5056692;28;48115;-86
2021/06/03 04:49:06;;;;;;;;;24.50;22.00;;;;;22.65;54.87;101101.78;5056152;28;45807;-87
2021/06/03 04:55:05;;;;;;;;;18.75;18.25;;;;;22.20;54.47;101025.06;5078562;28;45759;-87
2021/06/03 04:57:32;;;;;;;;;17.25;17.00;;;;;22.59;54.35;101094.47;5061412;28;47919;-87
2021/06/03 04:59:58;;;;;;;;;21.50;19.75;;;;;22.38;54.27;101056.88;5061647;28;45632;-86
2021/06/03 05:02:24;;;;;;;;;18.00;17.25;;;;;22.49;54.81;101075.16;5078272;28;45773;-89
2021/06/03 05:04:51;;;;;;;;;19.50;18.00;;;;;22.25;54.99;101036.06;5061884;28;46521;-87
2021/06/03 05:07:17;;;;;;;;;19.50;18.50;;;;;22.44;54.48;101057.00;5079475;28;47182;-85
2021/06/03 05:09:42;;;;;;;;;20.00;17.50;;;;;22.66;54.97;101095.44;5076974;28;45749;-85
2021/06/03 05:12:09;;;;;;;;;20.25;18.25;;;;;22.68;55.11;101097.91;5059565;28;45579;-87
2021/06/03 05:14:34;;;;;;;;;20.25;19.00;;;;;22.66;54.97;101094.63;5058945;28;47607;-87
2021/06/03 05:17:01;;;;;;;;;17.50;16.75;;;;;22.63;54.65;101100.28;5059825;28;46921;-86
2021/06/03 05:19:26;;;;;;;;;20.25;19.50;;;;;22.52;55.09;101085.50;5059443;28;45843;-87
2021/06/03 05:25:16;;;;;;;;;18.75;18.00;;;;;22.47;55.08;101086.03;5077873;28;45787;-87
2021/06/03 05:27:43;;;;;;;;;25.00;24.50;;;;;22.64;55.06;101113.47;5077778;28;45478;-87
2021/06/03 05:30:11;;;;;;;;;22.25;21.75;;;;;22.40;54.93;101074.34;5077368;28;45793;-87
2021/06/03 05:32:36;;;;;;;;;19.50;18.50;;;;;22.49;54.66;101083.19;5077720;28;45998;-86
2021/06/03 05:35:06;;;;;;;;;20.00;18.50;;;;;22.69;55.20;101120.97;5076761;28;47185;-87
2021/06/03 05:37:32;;;;;;;;;22.50;19.75;;;;;22.62;54.70;101101.31;5077138;28;45586;-87
2021/06/03 05:39:57;;;;;;;;;19.00;17.50;;;;;22.66;54.70;101110.66;5076319;28;45820;-86
2021/06/03 05:42:23;;;;;;;;;19.00;17.25;;;;;22.74;54.87;101116.78;5058568;28;45673;-85
2021/06/03 05:44:50;;;;;;;;;18.50;17.75;;;;;22.44;54.30;101073.03;5075076;28;47107;-86
2021/06/03 05:47:16;;;;;;;;;23.00;20.00;;;;;22.55;54.64;101090.50;5075153;28;47301;-87
2021/06/03 05:49:42;;;;;;;;;22.50;20.75;;;;;22.37;54.74;101052.53;5058158;28;45599;-87
2021/06/03 05:55:29;;;;;;;;;19.50;17.50;;;;;22.59;54.30;101089.97;5076299;28;45677;-87
2021/06/03 05:57:54;;;;;;;;;19.25;18.50;;;;;22.78;54.69;101111.94;5077656;28;46208;-86
2021/06/03 06:00:23;;;;;;;;;19.75;18.00;;;;;22.73;55.01;101090.25;5078677;28;45759;-88
2021/06/03 06:02:55;;;;;;;;;26.75;24.50;;;;;22.94;54.76;101127.88;5078247;28;45757;-81
2021/06/03 06:08:07;;;;;;;;;20.25;19.00;;;;;22.98;54.44;101130.03;5084321;28;46060;-83
2021/06/03 06:10:34;;;;;;;;;20.50;19.25;;;;;22.99;54.90;101128.19;5066528;28;45665;-80
2021/06/03 06:13:00;;;;;;;;;15.75;15.50;;;;;22.91;54.30;101109.50;5063534;28;45666;-88
2021/06/03 06:15:27;;;;;;;;;19.50;19.00;;;;;22.94;54.31;101126.03;5058370;28;46673;-85
2021/06/03 06:17:53;;;;;;;;;18.25;17.00;;;;;22.97;54.73;101135.53;5070360;28;45932;-80
2021/06/03 06:26:43;;;;;;;;;19.00;18.00;;;;;22.79;54.06;101101.06;5060796;28;45606;-85
2021/06/03 06:29:08;;;;;;;;;18.00;17.75;;;;;22.92;54.24;101125.38;5057969;28;47295;-84
2021/06/03 06:31:34;;;;;;;;;20.00;18.75;;;;;22.96;54.47;101133.88;5059396;28;45604;-84
2021/06/03 06:34:00;;;;;;;;;19.50;17.25;;;;;22.78;53.80;101093.25;5059691;28;45436;-81
2021/06/03 06:36:26;;;;;;;;;17.50;16.25;;;;;23.04;54.25;101138.34;5058493;28;48891;-85
2021/06/03 06:38:51;;;;;;;;;23.75;20.00;;;;;23.02;53.78;101133.16;5073179;28;47229;-84
2021/06/03 06:41:16;;;;;;;;;17.25;17.25;;;;;23.06;53.82;101134.47;5057698;28;45653;-81
2021/06/03 06:43:42;;;;;;;;;20.75;19.75;;;;;22.89;54.02;101114.19;5056756;28;45761;-85
2021/06/03 06:46:07;;;;;;;;;16.25;15.25;;;;;23.13;54.35;101147.97;5057533;28;46256;-82
2021/06/03 06:48:34;;;;;;;;;19.50;17.00;;;;;23.18;53.64;101154.44;5072500;28;47342;-88
2021/06/03 06:51:00;;;;;;;;;20.75;19.00;;;;;23.06;53.60;101133.63;5058945;28;45788;-85
2021/06/03 06:53:26;;;;;;;;;18.25;18.25;;;;;23.24;54.05;101163.59;5079400;28;45511;-83
2021/06/03 06:55:52;;;;;;;;;18.50;17.25;;;;;23.25;53.38;101163.44;5064423;28;45990;-83
2021/06/03 06:58:17;;;;;;;;;20.75;18.25;;;;;23.12;53.62;101140.94;5061588;28;45514;-84
2021/06/03 07:00:44;;;;;;;;;26.25;22.00;;;;;23.24;53.26;101160.94;5060111;28;45687;-81
2021/06/03 07:03:11;;;;;;;;;22.25;18.00;;;;;23.18;53.33;101157.13;5059684;28;45608;-83
2021/06/03 07:05:40;;;;;;;;;17.00;15.75;;;;;23.23;53.69;101161.94;5059378;28;46344;-81
2021/06/03 07:11:27;;;;;;;;;20.00;16.50;;;;;23.26;53.49;101161.59;5064465;28;45684;-79
2021/06/03 07:13:52;;;;;;;;;20.50;18.00;;;;;23.24;52.83;101168.94;5076220;28;45732;-81
2021/06/03 07:16:18;;;;;;;;;18.25;16.25;;;;;23.23;53.27;101162.75;5072545;28;47669;-83
2021/06/03 07:18:44;;;;;;;;;17.75;16.75;;;;;23.31;52.74;101169.91;5074409;28;46782;-83
2021/06/03 07:21:10;;;;;;;;;15.50;15.00;;;;;23.26;53.08;101159.75;5074670;28;45776;-83
2021/06/03 07:23:35;;;;;;;;;18.50;17.25;;;;;23.38;52.51;101173.53;5057119;28;45866;-81
2021/06/03 07:26:00;;;;;;;;;16.50;16.50;;;;;23.22;53.07;101134.34;5074875;28;46527;-82
2021/06/03 07:28:26;;;;;;;;;18.25;16.75;;;;;23.40;52.88;101164.31;5074081;28;45689;-81
2021/06/03 07:30:52;;;;;;;;;16.50;16.25;;;;;23.43;52.72;101171.13;5075287;28;45826;-86
2021/06/03 07:33:17;;;;;;;;;21.00;19.25;;;;;23.44;52.70;101175.47;5074705;28;45782;-81
2021/06/03 07:35:43;;;;;;;;;17.75;16.75;;;;;23.44;52.07;101173.66;5075535;28;45614;-84
2021/06/03 07:41:30;;;;;;;;;14.25;14.00;;;;;23.50;51.94;101177.47;5076106;28;45685;-83
2021/06/03 07:43:55;;;;;;;;;17.25;15.25;;;;;23.56;52.12;101178.59;5077941;28;45585;-81
2021/06/03 07:46:21;;;;;;;;;13.25;12.50;;;;;23.51;51.74;101171.13;5077519;28;47312;-81
2021/06/03 07:48:46;;;;;;;;;16.00;15.25;;;;;23.64;52.06;101186.59;5074723;28;45708;-84
2021/06/03 07:51:12;;;;;;;;;14.00;14.00;;;;;23.60;51.44;101178.06;5075625;28;45690;-82
2021/06/03 07:56:59;;;;;;;;;17.50;16.25;;;;;23.77;51.27;101195.66;5074257;28;45996;-83
2021/06/03 07:59:25;;;;;;;;;16.50;15.00;;;;;23.80;51.49;101194.47;5073723;28;45824;-82
2021/06/03 08:01:51;;;;;;;;;16.25;16.25;;;;;23.85;51.55;101197.44;5074137;28;45574;-81
2021/06/03 08:04:19;;;;;;;;;21.50;18.25;;;;;23.86;51.86;101196.41;5074322;28;45815;-82
2021/06/03 08:06:45;;;;;;;;;17.75;16.50;;;;;23.94;51.19;101192.81;5073313;28;46514;-81
2021/06/03 08:09:10;;;;;;;;;20.50;19.00;;;;;23.96;51.43;101191.66;5073436;28;45781;-81
2021/06/03 08:11:37;;;;;;;;;18.50;16.00;;;;;23.97;51.62;101195.97;5073427;28;45599;-83
2021/06/03 08:14:03;;;;;;;;;15.00;14.75;;;;;24.01;51.21;101205.31;5073667;28;45622;-82
2021/06/03 08:16:28;;;;;;;;;18.75;16.50;;;;;23.87;51.60;101178.50;5073180;28;46711;-79
2021/06/03 08:18:56;;;;;;;;;18.50;16.50;;;;;23.85;51.35;101178.69;5073078;28;45929;-81
2021/06/03 08:21:21;;;;;;;;;18.75;16.25;;;;;24.08;50.83;101210.75;5073986;28;45622;-81
2021/06/03 08:27:08;;;;;;;;;17.25;14.50;;;;;24.10;50.67;101206.91;5074333;28;46072;-80
2021/06/03 08:29:33;;;;;;;;;14.00;14.00;;;;;24.13;50.57;101209.19;5076331;28;46558;-80
2021/06/03 08:31:59;;;;;;;;;16.25;15.00;;;;;24.10;50.85;101201.53;5058850;28;45541;-80
2021/06/03 08:34:25;;;;;;;;;12.50;12.25;;;;;24.19;50.35;101202.31;5076550;28;45609;-80
2021/06/03 08:42:59;;;;;;;;;16.00;15.25;;;;;24.41;50.13;101206.75;5076645;28;45560;-80
2021/06/03 08:45:27;;;;;;;;;17.00;16.00;;;;;24.42;49.68;101197.72;5076573;28;45709;-80
2021/06/03 08:47:53;;;;;;;;;14.00;13.75;;;;;24.50;49.67;101210.19;5075753;28;45552;-79
2021/06/03 08:50:19;;;;;;;;;18.00;15.00;;;;;24.53;50.27;101213.34;5057711;28;48383;-79
2021/06/03 08:52:45;;;;;;;;;20.25;19.00;;;;;24.57;50.09;101208.41;5077065;28;45748;-80
2021/06/03 08:56:14;;;;;;;;;19.50;16.75;;;;;24.59;50.27;101214.44;5078487;28;45639;-83
2021/06/03 08:58:07;;;;;;;;;20.25;18.00;;;;;24.58;49.38;101210.94;5080293;28;46462;-83
2021/06/03 09:00:34;;;;;;;;;19.50;17.25;;;;;24.49;49.33;101195.13;5077190;28;46013;-83
2021/06/03 09:03:00;;;;;;;;;19.50;18.50;;;;;24.38;49.85;101182.19;5076556;28;45664;-81
2021/06/03 09:05:26;;;;;;;;;17.50;16.25;;;;;24.49;49.76;101195.97;5076177;28;45738;-80
2021/06/03 09:07:52;;;;;;;;;19.75;18.75;;;;;24.53;50.09;101196.41;5075940;28;46729;-80
2021/06/03 09:10:38;;;;;;;;;17.50;17.25;;;;;24.48;49.72;101190.78;5075842;28;46170;-81
2021/06/03 09:13:23;;;;;;;;;16.25;14.00;;;;;24.63;49.91;101210.38;5076781;28;45759;-81
2021/06/03 09:15:52;;;;;;;;;17.00;16.25;;;;;24.66;49.85;101199.28;5076537;28;45723;-82
2021/06/03 09:18:27;;;;;;;;;17.25;15.75;;;;;24.70;49.63;101211.28;5076154;28;46583;-80
2021/06/03 09:20:52;;;;;;;;;16.25;15.25;;;;;24.75;49.60;101208.88;5075901;28;46285;-80
2021/06/03 09:23:30;;;;;;;;;16.75;15.25;;;;;24.80;49.43;101201.09;5075952;28;45433;-80
2021/06/03 09:25:58;;;;;;;;;17.25;16.75;;;;;24.86;49.98;101196.84;5058006;28;45720;-82
2021/06/03 09:28:32;;;;;;;;;17.25;16.00;;;;;24.77;49.34;101187.25;5076071;28;45631;-83
2021/06/03 09:31:05;;;;;;;;;19.75;18.00;;;;;24.74;49.66;101169.69;5074835;28;46389;-85
2021/06/03 09:33:39;;;;;;;;;16.50;15.00;;;;;24.76;49.74;101174.88;5076121;28;45660;-83
2021/06/03 09:36:08;;;;;;;;;19.00;16.75;;;;;24.88;49.70;101187.66;5076918;28;45705;-84
2021/06/03 09:38:33;;;;;;;;;16.50;15.50;;;;;25.03;49.42;101190.28;5074897;28;48448;-82
2021/06/03 09:40:59;;;;;;;;;17.50;16.00;;;;;25.05;49.38;101183.69;5076938;28;45610;-84
2021/06/03 09:43:24;;;;;;;;;15.25;13.25;;;;;25.15;49.36;101199.50;5077493;28;45665;-84
2021/06/03 09:45:52;;;;;;;;;15.00;15.00;;;;;25.22;49.35;101192.34;5077395;28;45511;-83
2021/06/03 09:48:47;;;;;;;;;13.50;13.25;;;;;25.23;49.13;101180.59;5077336;28;45759;-82
2021/06/03 09:51:25;;;;;;;;;17.75;17.25;;;;;25.29;48.99;101179.00;5070029;28;46530;-84
2021/06/03 09:53:57;;;;;;;;;18.75;17.25;;;;;25.42;48.79;101188.03;5076745;28;45680;-81
2021/06/03 09:56:45;;;;;;;;;17.00;15.50;;;;;25.47;48.54;101198.19;5076516;28;45507;-82
2021/06/03 09:59:21;;;;;;;;;15.00;14.25;;;;;25.50;48.41;101190.56;5075345;28;46474;-82
2021/06/03 10:02:10;;;;;;;;;16.25;16.25;;;;;25.55;48.29;101192.69;5076685;28;46345;-81
2021/06/03 10:04:41;;;;;;;;;16.50;14.75;;;;;25.59;48.08;101190.50;5075905;28;45470;-84
2021/06/03 10:07:21;;;;;;;;;18.00;16.00;;;;;25.55;47.96;101181.94;5076665;28;45634;-81
2021/06/03 10:10:05;;;;;;;;;15.75;15.00;;;;;25.53;47.96;101170.59;5075902;28;45665;-82
2021/06/03 10:12:41;;;;;;;;;14.50;13.00;;;;;25.70;47.73;101185.41;5075974;28;45961;-81
2021/06/03 10:15:21;;;;;;;;;17.50;15.75;;;;;25.76;47.51;101189.16;5076483;28;45760;-82
2021/06/03 10:17:58;;;;;;;;;17.25;16.25;;;;;25.79;47.56;101184.25;5076573;28;45848;-82
2021/06/03 10:20:49;;;;;;;;;17.00;16.00;;;;;25.85;47.41;101190.72;5078203;28;45637;-84
2021/06/03 10:26:56;;;;;;;;;13.25;13.25;;;;;25.90;47.11;101186.41;5077058;28;45670;-81
2021/06/03 10:29:22;;;;;;;;;15.50;14.25;;;;;25.92;47.11;101188.88;5080060;28;45609;-80
2021/06/03 10:31:47;;;;;;;;;15.75;14.25;;;;;25.88;47.02;101174.19;5080792;28;45569;-83
2021/06/03 10:34:13;;;;;;;;;15.50;14.50;;;;;25.95;46.86;101180.47;5080334;28;45534;-80
2021/06/03 10:36:42;;;;;;;;;14.75;14.00;;;;;25.99;46.88;101194.31;5081142;28;45638;-82
2021/06/03 10:42:30;;;;;;;;;16.50;15.00;;;;;25.96;46.08;101175.91;5082546;28;45667;-83
2021/06/03 10:44:55;;;;;;;;;17.50;15.00;;;;;25.84;46.50;101156.81;5063167;28;46170;-80
2021/06/03 10:47:21;;;;;;;;;15.75;14.25;;;;;25.93;46.32;101185.19;5062889;28;45617;-84
2021/06/03 10:49:47;;;;;;;;;15.50;13.75;;;;;25.96;46.40;101189.34;5078110;28;45646;-83
2021/06/03 10:52:15;;;;;;;;;15.25;14.50;;;;;26.02;46.55;101188.56;5074334;28;45730;-81
2021/06/03 10:58:05;;;;;;;;;15.50;15.00;;;;;26.06;46.32;101182.59;5075122;28;45706;-81
2021/06/03 11:00:44;;;;;;;;;15.25;15.00;;;;;26.13;46.20;101183.47;5075390;28;45817;-82
2021/06/03 11:03:12;;;;;;;;;15.25;15.00;;;;;26.15;45.88;101175.22;5075071;28;47042;-85
2021/06/03 11:05:47;;;;;;;;;15.25;14.00;;;;;26.13;46.21;101166.50;5073357;28;47180;-83
2021/06/03 11:08:25;;;;;;;;;15.00;14.00;;;;;26.28;46.12;101186.09;5074772;28;45690;-82
2021/06/03 11:15:00;;;;;;;;;19.50;17.25;;;;;26.42;46.17;101182.44;5071337;28;45566;-79
2021/06/03 11:17:57;;;;;;;;;14.75;14.00;;;;;26.47;45.80;101173.78;5074388;28;46684;-80
2021/06/03 11:20:33;;;;;;;;;18.00;16.00;;;;;26.52;45.56;101172.16;5074722;28;45713;-80
2021/06/03 11:29:56;;;;;;;;;16.25;15.00;;;;;26.72;44.69;101172.25;4972242;28;45678;-80
2021/06/03 11:32:25;;;;;;;;;14.75;13.00;;;;;26.83;44.51;101173.53;4972546;28;45764;-83
2021/06/03 11:34:53;;;;;;;;;14.50;14.00;;;;;26.79;44.16;101153.44;4972809;28;45688;-82
2021/06/03 11:37:37;;;;;;;;;19.00;18.00;;;;;26.99;43.95;101171.31;4972616;28;46902;-83
2021/06/03 11:40:05;;;;;;;;;16.00;15.75;;;;;27.04;44.26;101168.06;4973849;28;46461;-83
2021/06/03 11:43:05;;;;;;;;;17.00;15.50;;;;;27.12;44.35;101168.69;4972612;28;45809;-81
2021/06/03 11:45:31;;;;;;;;;17.50;15.00;;;;;27.18;43.89;101175.13;4973266;28;45698;-81
2021/06/03 11:48:05;;;;;;;;;17.25;16.25;;;;;27.21;43.82;101163.13;4972565;28;47307;-81
2021/06/03 11:50:30;;;;;;;;;15.00;13.75;;;;;27.23;44.16;101164.56;4972953;28;46199;-79
2021/06/03 11:52:56;;;;;;;;;18.50;16.75;;;;;27.26;43.73;101168.72;4973594;28;45731;-81
2021/06/03 11:55:29;;;;;;;;;19.00;18.75;;;;;27.31;43.93;101182.41;4972302;28;45655;-81
2021/06/03 11:58:27;;;;;;;;;17.50;16.25;;;;;27.34;44.02;101166.66;4973017;28;46507;-82
2021/06/03 12:01:10;;;;;;;;;16.00;16.00;;;;;27.39;43.59;101164.19;4973415;28;45745;-81
2021/06/03 12:03:57;;;;;;;;;18.75;18.00;;;;;27.45;43.21;101159.84;5066690;28;45573;-81
2021/06/03 12:06:25;;;;;;;;;18.25;17.00;;;;;27.49;43.49;101169.97;5076146;28;45517;-80
2021/06/03 12:11:38;;;;;;;;;17.50;16.50;;;;;27.55;43.23;101166.50;5076881;28;45749;-81
2021/06/03 12:14:05;;;;;;;;;17.00;15.25;;;;;27.60;43.13;101159.66;5068013;28;45846;-80
2021/06/03 12:16:40;;;;;;;;;15.25;15.00;;;;;27.55;43.43;101144.13;5077292;28;45573;-79
2021/06/03 12:19:12;;;;;;;;;20.25;17.75;;;;;27.49;42.95;101136.84;5076874;28;46017;-80
2021/06/03 12:21:39;;;;;;;;;17.25;16.50;;;;;27.55;42.64;101153.03;5076379;28;45975;-80
2021/06/03 12:24:05;;;;;;;;;17.75;16.00;;;;;27.61;42.86;101158.63;5077003;28;45481;-79
2021/06/03 12:26:30;;;;;;;;;16.50;16.00;;;;;27.52;42.92;101139.16;5077287;28;45554;-81
2021/06/03 12:28:56;;;;;;;;;14.25;13.75;;;;;27.65;42.47;101143.72;5076226;28;46548;-79
2021/06/03 12:31:26;;;;;;;;;15.25;15.00;;;;;27.70;42.79;101144.75;5075627;28;45495;-77
2021/06/03 12:33:52;;;;;;;;;15.50;13.75;;;;;27.75;42.46;101144.94;5076481;28;45633;-79
2021/06/03 12:36:18;;;;;;;;;13.75;13.50;;;;;27.81;42.61;101154.06;5059811;28;45747;-82
2021/06/03 12:38:48;;;;;;;;;15.25;15.25;;;;;27.85;42.29;101142.69;5076527;28;45770;-80
2021/06/03 12:41:19;;;;;;;;;15.00;14.50;;;;;27.93;41.94;101147.00;5076113;28;46397;-78
2021/06/03 12:43:48;;;;;;;;;14.50;13.50;;;;;27.95;41.88;101142.25;5076541;28;45787;-79
2021/06/03 12:46:14;;;;;;;;;15.50;15.00;;;;;27.99;41.84;101138.09;5076900;28;45918;-80
2021/06/03 12:48:41;;;;;;;;;15.50;15.25;;;;;28.03;41.62;101150.09;5076133;28;46577;-80
2021/06/03 12:51:09;;;;;;;;;16.00;14.75;;;;;28.06;41.78;101138.91;5076363;28;46295;-82